createdAt,value
2024-05-09T00:00:48.942Z,3.02
2024-05-09T00:06:12.173Z,2.95
2024-05-09T00:11:16.382Z,2.92
2024-05-09T00:16:19.343Z,2.90
2024-05-09T00:21:22.237Z,2.85
2024-05-09T00:26:25.240Z,2.78
2024-05-09T00:31:28.301Z,2.70
2024-05-09T00:36:31.257Z,2.61
2024-05-09T00:41:34.360Z,2.58
2024-05-09T00:46:37.578Z,2.60
2024-05-09T00:51:42.140Z,2.60
2024-05-09T00:56:45.018Z,2.56
2024-05-09T01:01:48.652Z,2.49
2024-05-09T01:06:51.751Z,2.38
2024-05-09T01:11:54.975Z,2.25
2024-05-09T01:16:57.932Z,2.13
2024-05-09T01:22:01.061Z,2.09
2024-05-09T01:27:04.378Z,2.06
2024-05-09T01:32:07.497Z,2.02
2024-05-09T01:37:10.400Z,2.01
2024-05-09T01:42:13.306Z,1.96
2024-05-09T01:47:16.365Z,1.88
2024-05-09T01:52:19.617Z,1.85
2024-05-09T01:57:22.536Z,1.84
2024-05-09T02:02:25.644Z,1.76
2024-05-09T02:07:28.670Z,1.68
2024-05-09T02:12:31.752Z,1.62
2024-05-09T02:17:34.794Z,1.55
2024-05-09T02:22:37.774Z,1.48
2024-05-09T02:27:40.676Z,1.40
2024-05-09T02:32:43.686Z,1.35
2024-05-09T02:37:46.723Z,1.35
2024-05-09T02:42:49.701Z,1.32
2024-05-09T02:47:52.830Z,1.32
2024-05-09T02:52:55.953Z,1.33
2024-05-09T02:57:58.907Z,1.38
2024-05-09T03:03:02.185Z,1.45
2024-05-09T03:08:05.901Z,1.55
2024-05-09T03:13:12.643Z,1.87
2024-05-09T03:18:17.252Z,2.60
2024-05-09T03:23:20.342Z,3.72
2024-05-09T03:28:23.330Z,4.06
2024-05-09T03:33:26.562Z,4.66
2024-05-09T03:38:30.035Z,5.83
2024-05-09T03:43:33.029Z,6.98
2024-05-09T03:48:36.243Z,8.47
2024-05-09T03:53:39.532Z,10.11
2024-05-09T03:58:42.477Z,11.78
2024-05-09T04:03:45.639Z,13.75
2024-05-09T04:08:48.755Z,15.75
2024-05-09T04:13:51.645Z,17.19
2024-05-09T04:18:54.734Z,18.59
2024-05-09T04:23:57.814Z,19.99
2024-05-09T04:29:00.851Z,20.92
2024-05-09T04:34:04.418Z,21.62
2024-05-09T04:39:07.552Z,22.47
2024-05-09T04:44:10.721Z,23.02
2024-05-09T04:49:14.344Z,23.29
2024-05-09T04:54:29.529Z,23.50
2024-05-09T04:59:37.086Z,23.43
2024-05-09T05:04:40.157Z,23.85
2024-05-09T05:09:43.110Z,24.85
2024-05-09T05:14:46.221Z,25.47
2024-05-09T05:19:49.319Z,25.54
2024-05-09T05:24:52.436Z,25.83
2024-05-09T05:29:55.435Z,26.23
2024-05-09T05:34:58.354Z,26.26
2024-05-09T05:40:01.455Z,26.17
2024-05-09T05:45:06.784Z,26.30
2024-05-09T05:50:20.766Z,26.57
2024-05-09T05:55:30.538Z,26.42
2024-05-09T06:00:38.441Z,26.87
2024-05-09T06:05:44.227Z,27.35
2024-05-09T06:10:47.743Z,27.72
2024-05-09T06:15:50.762Z,27.93
2024-05-09T06:20:53.792Z,28.06
2024-05-09T06:25:56.855Z,28.21
2024-05-09T06:31:01.829Z,28.34
2024-05-09T06:36:05.740Z,28.77
2024-05-09T06:41:08.794Z,29.11
2024-05-09T06:46:11.772Z,29.42
2024-05-09T06:51:14.878Z,30.02
2024-05-09T06:56:18.058Z,30.30
2024-05-09T07:01:21.045Z,30.47
2024-05-09T07:06:24.203Z,30.44
2024-05-09T07:11:27.384Z,30.31
2024-05-09T07:16:30.427Z,30.44
2024-05-09T07:21:33.431Z,30.46
2024-05-09T07:26:36.648Z,30.45
2024-05-09T07:31:40.368Z,30.35
2024-05-09T07:36:43.668Z,30.22
2024-05-09T07:41:47.012Z,30.11
2024-05-09T07:47:52.255Z,30.44
2024-05-09T07:53:29.788Z,30.48
2024-05-09T07:57:38.277Z,30.27
2024-05-09T08:02:41.560Z,30.05
2024-05-09T08:07:46.094Z,30.01
2024-05-09T08:12:49.010Z,29.85
2024-05-09T08:17:52.051Z,29.52
2024-05-09T08:22:55.183Z,28.62
2024-05-09T08:27:58.424Z,28.18
2024-05-09T08:33:01.650Z,28.24
2024-05-09T08:38:06.195Z,28.33
2024-05-09T08:43:11.947Z,28.03
2024-05-09T08:48:17.888Z,26.78
2024-05-09T08:53:21.420Z,24.79
2024-05-09T08:58:25.276Z,23.16
2024-05-09T09:03:33.051Z,21.95
2024-05-09T09:08:39.450Z,21.08
2024-05-09T09:13:42.353Z,20.53
2024-05-09T09:18:49.722Z,20.07
2024-05-09T09:23:52.850Z,19.80
2024-05-09T09:29:01.819Z,19.52
2024-05-09T09:34:08.936Z,19.31
2024-05-09T09:39:16.849Z,19.23
2024-05-09T09:44:22.100Z,19.39
2024-05-09T09:49:26.594Z,19.23
2024-05-09T09:54:29.914Z,18.59
2024-05-09T09:59:35.645Z,18.29
2024-05-09T10:04:38.603Z,18.31
2024-05-09T10:09:41.876Z,18.45
2024-05-09T10:14:49.303Z,18.66
2024-05-09T10:20:14.369Z,18.83
2024-05-09T10:25:25.193Z,18.91
2024-05-09T10:30:34.164Z,18.93
2024-05-09T10:35:39.273Z,19.02
2024-05-09T10:40:44.434Z,19.17
2024-05-09T10:45:49.213Z,19.04
2024-05-09T10:50:52.429Z,18.95
2024-05-09T10:56:00.926Z,19.13
2024-05-09T11:01:07.060Z,19.33
2024-05-09T11:06:11.681Z,19.59
2024-05-09T11:11:15.627Z,19.61
2024-05-09T11:16:21.378Z,19.59
2024-05-09T11:21:26.967Z,19.65
2024-05-09T11:26:32.376Z,19.77
2024-05-09T11:31:46.489Z,19.87
2024-05-09T11:36:49.622Z,19.99
2024-05-09T11:41:52.893Z,19.95
2024-05-09T11:46:56.398Z,19.68
2024-05-09T11:51:59.425Z,19.62
2024-05-09T11:57:02.609Z,19.72
2024-05-09T12:02:05.691Z,19.68
2024-05-09T12:07:11.414Z,19.57
2024-05-09T12:12:15.954Z,19.65
2024-05-09T12:17:18.992Z,19.81
2024-05-09T12:22:21.973Z,19.95
2024-05-09T12:27:24.951Z,20.03
2024-05-09T12:32:28.186Z,19.97
2024-05-09T12:37:31.167Z,20.03
2024-05-09T12:42:34.171Z,20.15
2024-05-09T12:47:37.098Z,20.30
2024-05-09T12:52:40.327Z,20.30
2024-05-09T12:57:43.531Z,20.10
2024-05-09T13:02:46.630Z,20.06
2024-05-09T13:07:50.240Z,20.15
2024-05-09T13:12:53.356Z,20.27
2024-05-09T13:18:00.533Z,20.25
2024-05-09T13:23:08.002Z,20.25
2024-05-09T13:28:12.341Z,20.28
2024-05-09T13:33:15.654Z,20.33
2024-05-09T13:38:20.159Z,20.51
2024-05-09T13:43:23.546Z,20.51
2024-05-09T13:48:26.697Z,20.50
2024-05-09T13:53:29.675Z,20.62
2024-05-09T13:58:32.842Z,20.74
2024-05-09T14:03:36.021Z,20.71
2024-05-09T14:08:39.004Z,20.68
2024-05-09T14:13:41.808Z,20.74
2024-05-09T14:18:44.725Z,20.67
2024-05-09T14:23:47.614Z,20.63
2024-05-09T14:28:50.516Z,20.68
2024-05-09T14:33:53.745Z,20.56
2024-05-09T14:38:56.838Z,20.36
2024-05-09T14:43:59.643Z,20.13
2024-05-09T14:49:02.802Z,19.99
2024-05-09T14:54:05.815Z,19.95
2024-05-09T14:59:09.312Z,19.71
2024-05-09T15:04:12.358Z,19.59
2024-05-09T15:09:15.495Z,19.30
2024-05-09T15:14:18.394Z,18.88
2024-05-09T15:19:21.532Z,18.57
2024-05-09T15:24:24.511Z,18.52
2024-05-09T15:29:29.465Z,18.78
2024-05-09T15:34:32.495Z,19.10
2024-05-09T15:39:35.608Z,19.36
2024-05-09T15:44:38.587Z,19.55
2024-05-09T15:49:41.675Z,19.50
2024-05-09T15:54:44.737Z,19.13
2024-05-09T15:59:47.779Z,19.02
2024-05-09T16:04:50.911Z,18.99
2024-05-09T16:09:54.000Z,18.95
2024-05-09T16:14:57.035Z,18.90
2024-05-09T16:20:00.201Z,18.81
2024-05-09T16:25:03.519Z,18.71
2024-05-09T16:30:11.967Z,18.61
2024-05-09T16:35:18.182Z,18.56
2024-05-09T16:40:29.654Z,18.50
2024-05-09T16:45:41.053Z,18.41
2024-05-09T16:50:44.117Z,18.26
2024-05-09T16:55:47.211Z,18.08
2024-05-09T17:00:50.731Z,17.91
2024-05-09T17:05:54.056Z,17.76
2024-05-09T17:10:57.184Z,17.62
2024-05-09T17:16:00.424Z,17.51
2024-05-09T17:21:03.666Z,17.38
2024-05-09T17:26:07.215Z,17.23
2024-05-09T17:31:10.629Z,17.01
2024-05-09T17:36:14.158Z,16.80
2024-05-09T17:41:17.135Z,16.59
2024-05-09T17:46:20.278Z,16.39
2024-05-09T17:51:23.977Z,16.14
2024-05-09T17:56:27.586Z,15.89
2024-05-09T18:01:30.771Z,15.62
2024-05-09T18:06:34.205Z,15.36
2024-05-09T18:11:37.350Z,15.10
2024-05-09T18:16:40.330Z,14.81
2024-05-09T18:21:43.312Z,14.54
2024-05-09T18:26:46.348Z,14.29
2024-05-09T18:31:49.350Z,14.04
2024-05-09T18:36:52.507Z,13.79
2024-05-09T18:41:55.973Z,13.56
2024-05-09T18:46:58.984Z,13.36
2024-05-09T18:52:02.075Z,13.17
2024-05-09T18:57:05.693Z,13.00
2024-05-09T19:02:08.755Z,12.83
2024-05-09T19:07:13.503Z,12.66
2024-05-09T19:12:17.045Z,12.47
2024-05-09T19:17:20.042Z,12.26
2024-05-09T19:22:23.223Z,12.10
2024-05-09T19:27:26.412Z,12.01
2024-05-09T19:32:29.618Z,11.93
2024-05-09T19:37:32.739Z,11.82
2024-05-09T19:42:35.785Z,11.65
2024-05-09T19:47:39.353Z,11.47
2024-05-09T19:52:42.369Z,11.34
2024-05-09T19:57:45.318Z,11.24
2024-05-09T20:02:48.422Z,11.15
2024-05-09T20:07:51.388Z,11.08
2024-05-09T20:12:54.430Z,10.98
2024-05-09T20:17:57.673Z,10.88
2024-05-09T20:23:00.992Z,10.77
2024-05-09T20:28:05.927Z,10.65
2024-05-09T20:33:10.042Z,10.51
2024-05-09T20:38:13.529Z,10.34
2024-05-09T20:43:16.468Z,10.20
2024-05-09T20:48:19.485Z,10.06
2024-05-09T20:53:22.664Z,9.96
2024-05-09T20:58:25.763Z,9.87
2024-05-09T21:03:30.203Z,9.73
2024-05-09T21:08:33.617Z,9.64
2024-05-09T21:13:36.572Z,9.66
2024-05-09T21:18:40.176Z,9.72
2024-05-09T21:23:43.862Z,9.78
2024-05-09T21:28:46.924Z,9.82
2024-05-09T21:33:50.203Z,9.81
2024-05-09T21:38:53.554Z,9.84
2024-05-09T21:43:56.669Z,9.88
2024-05-09T21:48:59.975Z,9.96
2024-05-09T21:54:03.279Z,10.10
2024-05-09T21:59:06.754Z,10.14
2024-05-09T22:04:09.858Z,10.14
2024-05-09T22:09:12.878Z,10.15
2024-05-09T22:14:15.774Z,10.15
2024-05-09T22:19:18.952Z,10.14
2024-05-09T22:24:21.994Z,10.08
2024-05-09T22:29:24.898Z,10.01
2024-05-09T22:34:27.855Z,9.94
2024-05-09T22:39:30.805Z,9.77
2024-05-09T22:44:34.117Z,9.60
2024-05-09T22:49:37.245Z,9.43
2024-05-09T22:54:40.285Z,9.24
2024-05-09T22:59:43.242Z,9.04
2024-05-09T23:04:46.403Z,8.87
2024-05-09T23:09:49.398Z,8.74
2024-05-09T23:14:52.365Z,8.65
2024-05-09T23:19:55.268Z,8.57
2024-05-09T23:24:58.332Z,8.53
2024-05-09T23:30:01.276Z,8.52
2024-05-09T23:35:04.877Z,8.59
2024-05-09T23:40:09.711Z,8.68
2024-05-09T23:45:13.186Z,8.79
2024-05-09T23:50:20.675Z,8.92
2024-05-09T23:55:29.464Z,9.05
